Time;durP1;ratioP1;P1;durP2;ratioP2;P2;SDS_P1;SDS_P2;PMS_P1;PMS_P2;Temp;Humidity;BMP_temperature;BMP_pressure;BME280_temperature;BME280_humidity;BME280_pressure;Samples;Min_cycle;Max_cycle;Signal;HPM_P1;HPM_P2
2020/12/27 00:00:48;;;;;;;3.53;2.00;;;-1.80;99.90;;;;;;4969806;28;20380;-74
2020/12/27 00:03:13;;;;;;;3.15;2.25;;;-1.80;99.90;;;;;;4955701;28;20396;-74
2020/12/27 00:05:39;;;;;;;3.80;2.30;;;-1.50;99.90;;;;;;4962444;28;20477;-74
2020/12/27 00:08:05;;;;;;;2.20;1.80;;;;;;;;;;4951111;28;20409;-74
2020/12/27 00:10:30;;;;;;;2.40;2.13;;;-1.70;99.90;;;;;;4967031;28;20377;-76
2020/12/27 00:12:56;;;;;;;3.83;1.90;;;-1.10;99.90;;;;;;4968287;28;20394;-74
2020/12/27 00:15:22;;;;;;;3.70;2.10;;;-1.80;99.90;;;;;;4958236;28;20423;-74
2020/12/27 00:17:47;;;;;;;2.50;1.63;;;-1.80;99.90;;;;;;4961406;28;20417;-74
2020/12/27 00:20:13;;;;;;;3.90;1.90;;;-1.70;99.90;;;;;;4952719;28;20390;-74
2020/12/27 00:22:38;;;;;;;2.27;1.93;;;-1.20;99.90;;;;;;4966682;28;20504;-74
2020/12/27 00:25:04;;;;;;;2.45;1.95;;;-1.90;99.90;;;;;;4967877;28;20421;-74
2020/12/27 00:27:30;;;;;;;2.35;1.77;;;0.20;99.90;;;;;;4952269;28;20430;-75
2020/12/27 00:29:55;;;;;;;2.47;2.10;;;-1.60;99.90;;;;;;4962189;28;20876;-74
2020/12/27 00:32:25;;;;;;;2.30;1.80;;;-1.80;99.90;;;;;;4957634;28;20390;-73
2020/12/27 00:34:51;;;;;;;2.33;1.90;;;-1.40;99.90;;;;;;4967041;28;20416;-75
2020/12/27 00:37:17;;;;;;;2.90;2.10;;;-1.50;99.90;;;;;;4957736;28;20399;-74
2020/12/27 00:39:43;;;;;;;3.08;2.00;;;-1.50;99.90;;;;;;4961965;28;20861;-75
2020/12/27 00:42:08;;;;;;;2.80;2.45;;;-1.70;99.90;;;;;;4963217;28;20410;-74
2020/12/27 00:44:34;;;;;;;3.37;2.63;;;-1.30;99.90;;;;;;4953604;28;20406;-76
2020/12/27 00:46:59;;;;;;;3.17;2.10;;;-1.60;99.90;;;;;;4951965;28;20398;-74
2020/12/27 00:49:25;;;;;;;3.40;2.00;;;-1.60;99.90;;;;;;4958806;28;20425;-74
2020/12/27 00:51:51;;;;;;;3.58;2.22;;;-1.70;99.90;;;;;;4959042;28;20497;-74
2020/12/27 00:54:17;;;;;;;3.00;2.03;;;-1.80;99.90;;;;;;4965913;28;20400;-74
2020/12/27 00:56:47;;;;;;;4.00;2.13;;;-1.70;99.90;;;;;;4969580;28;20420;-74
2020/12/27 00:59:13;;;;;;;2.95;1.80;;;-1.70;99.90;;;;;;4957186;28;20430;-74
2020/12/27 01:01:39;;;;;;;1.85;1.70;;;-1.30;99.90;;;;;;4962106;28;20466;-74
2020/12/27 01:04:04;;;;;;;2.63;1.80;;;-1.50;99.90;;;;;;4952084;29;20394;-74
2020/12/27 01:06:30;;;;;;;3.40;2.17;;;-1.70;99.90;;;;;;4967115;28;20388;-74
2020/12/27 01:08:56;;;;;;;2.07;1.80;;;-1.70;99.90;;;;;;4954318;28;20423;-75
2020/12/27 01:11:22;;;;;;;2.13;1.75;;;-1.30;99.90;;;;;;4964944;28;20421;-76
2020/12/27 01:13:48;;;;;;;3.30;2.20;;;-1.30;99.90;;;;;;4961174;28;20384;-76
2020/12/27 01:16:18;;;;;;;3.35;2.03;;;-1.40;99.90;;;;;;4958262;28;20421;-76
2020/12/27 01:18:45;;;;;;;2.03;1.83;;;-1.30;99.90;;;;;;4967249;28;20873;-76
2020/12/27 01:21:11;;;;;;;4.88;2.03;;;-1.20;99.90;;;;;;4971486;28;20837;-77
2020/12/27 01:23:36;;;;;;;3.40;1.90;;;-1.20;99.90;;;;;;4964947;28;20496;-78
2020/12/27 01:26:02;;;;;;;2.10;1.70;;;-1.50;99.90;;;;;;4966380;28;20398;-77
2020/12/27 01:28:28;;;;;;;4.10;1.83;;;-1.30;99.90;;;;;;4974549;28;20384;-76
2020/12/27 01:30:53;;;;;;;2.47;1.85;;;-1.30;99.90;;;;;;4957654;28;20924;-75
2020/12/27 01:33:19;;;;;;;1.90;1.40;;;-0.20;99.90;;;;;;4969061;28;20390;-75
2020/12/27 01:35:46;;;;;;;1.50;1.00;;;1.80;99.90;;;;;;4962040;28;20423;-75
2020/12/27 01:38:13;;;;;;;2.30;1.50;;;2.20;99.90;;;;;;4974868;28;20748;-76
2020/12/27 01:40:39;;;;;;;2.60;1.38;;;0.70;99.90;;;;;;4957675;28;20425;-77
2020/12/27 01:43:05;;;;;;;1.10;1.00;;;2.70;99.90;;;;;;4958188;28;20411;-76
2020/12/27 01:45:31;;;;;;;1.70;1.17;;;1.10;99.80;;;;;;4973629;28;20384;-76
2020/12/27 01:47:57;;;;;;;2.50;1.50;;;3.50;99.90;;;;;;4962958;28;20386;-75
2020/12/27 01:50:23;;;;;;;2.00;1.20;;;1.00;98.90;;;;;;4968601;28;20919;-76
2020/12/27 01:52:49;;;;;;;1.70;1.37;;;1.30;98.20;;;;;;4957545;28;20412;-76
2020/12/27 01:55:15;;;;;;;2.30;1.40;;;3.00;98.80;;;;;;4969101;28;20550;-76
2020/12/27 01:57:53;;;;;;;1.80;1.70;;;1.50;97.70;;;;;;4962553;28;20894;-76
2020/12/27 02:00:22;;;;;;;1.92;1.38;;;1.50;99.90;;;;;;4975398;28;20833;-76
2020/12/27 02:02:48;;;;;;;2.80;1.33;;;1.20;99.90;;;;;;4958828;28;20394;-76
2020/12/27 02:05:14;;;;;;;2.95;1.30;;;3.90;98.80;;;;;;4974146;28;20392;-73
2020/12/27 02:07:43;;;;;;;2.00;1.38;;;1.40;97.50;;;;;;4965151;28;20393;-75
2020/12/27 02:10:09;;;;;;;2.00;1.50;;;1.40;97.10;;;;;;4966493;28;20392;-73
2020/12/27 02:12:34;;;;;;;1.43;1.20;;;3.50;98.30;;;;;;4958581;28;20405;-73
2020/12/27 02:15:00;;;;;;;5.60;1.40;;;1.80;99.90;;;;;;4984579;28;20941;-73
2020/12/27 02:17:25;;;;;;;1.47;1.30;;;0.90;97.80;;;;;;4960907;28;20478;-73
2020/12/27 02:19:51;;;;;;;2.80;1.27;;;3.30;99.40;;;;;;4963216;28;20442;-74
2020/12/27 02:22:17;;;;;;;2.47;1.20;;;1.30;99.90;;;;;;4982689;28;20964;-74
2020/12/27 02:24:42;;;;;;;2.95;1.20;;;1.10;96.80;;;;;;4956749;28;20517;-74
2020/12/27 02:27:08;;;;;;;1.95;1.20;;;2.40;98.10;;;;;;4968825;28;20406;-74
2020/12/27 02:29:36;;;;;;;2.70;1.53;;;2.40;99.10;;;;;;4962100;28;20396;-74
2020/12/27 02:32:01;;;;;;;2.17;1.52;;;1.30;97.20;;;;;;4961340;28;20390;-74
2020/12/27 02:34:27;;;;;;;2.28;1.27;;;3.00;99.00;;;;;;4968918;28;20493;-73
2020/12/27 02:36:53;;;;;;;1.90;1.33;;;2.50;99.90;;;;;;4954262;28;20413;-74
2020/12/27 02:39:20;;;;;;;1.63;1.30;;;2.10;99.90;;;;;;4960027;28;20419;-74
2020/12/27 02:41:52;;;;;;;2.97;1.25;;;1.10;99.90;;;;;;4963146;28;20771;-74
2020/12/27 02:44:18;;;;;;;1.63;1.25;;;3.00;99.90;;;;;;4967654;28;20487;-75
2020/12/27 02:46:44;;;;;;;1.88;1.40;;;1.10;98.10;;;;;;4970582;28;20876;-74
2020/12/27 02:49:09;;;;;;;1.50;1.30;;;3.20;98.40;;;;;;4958373;28;20399;-74
2020/12/27 02:51:35;;;;;;;1.63;1.20;;;2.30;97.80;;;;;;4965055;28;20552;-74
2020/12/27 02:54:01;;;;;;;5.07;1.70;;;1.20;99.90;;;;;;4964399;28;20395;-74
2020/12/27 02:56:28;;;;;;;1.88;1.20;;;1.80;99.00;;;;;;4958211;28;20417;-76
2020/12/27 02:58:59;;;;;;;3.95;1.50;;;1.20;99.70;;;;;;4968675;28;20873;-74
2020/12/27 03:01:26;;;;;;;2.53;1.70;;;1.30;96.50;;;;;;4960468;28;20790;-75
2020/12/27 03:03:52;;;;;;;1.80;1.55;;;1.50;98.10;;;;;;4962092;28;20476;-76
2020/12/27 03:06:21;;;;;;;3.00;1.77;;;2.90;99.40;;;;;;4965920;28;20411;-75
2020/12/27 03:08:56;;;;;;;2.88;1.50;;;0.60;98.30;;;;;;4970465;28;20748;-76
2020/12/27 03:11:23;;;;;;;2.70;1.90;;;0.40;99.90;;;;;;4980347;28;21031;-76
2020/12/27 03:13:49;;;;;;;2.60;1.60;;;0.30;99.90;;;;;;4962371;28;20497;-76
2020/12/27 03:16:15;;;;;;;1.77;1.50;;;0.00;99.90;;;;;;4959550;28;20418;-76
2020/12/27 03:18:40;;;;;;;2.25;1.60;;;0.10;99.90;;;;;;4968741;28;20388;-78
2020/12/27 03:21:06;;;;;;;1.70;1.40;;;0.50;99.90;;;;;;4957499;28;20391;-75
2020/12/27 03:23:32;;;;;;;2.30;1.43;;;-0.30;99.90;;;;;;4965049;28;20401;-76
2020/12/27 03:25:57;;;;;;;3.57;2.00;;;-0.10;99.90;;;;;;4963153;28;20589;-76
2020/12/27 03:28:23;;;;;;;2.75;2.00;;;-0.50;99.90;;;;;;4958390;28;20397;-75
2020/12/27 03:30:48;;;;;;;2.28;1.90;;;-0.70;99.90;;;;;;4968321;28;20454;-75
2020/12/27 03:33:14;;;;;;;2.45;2.10;;;-0.70;99.90;;;;;;4958224;28;20885;-75
2020/12/27 03:35:40;;;;;;;2.53;1.77;;;-0.80;99.90;;;;;;4970646;28;20427;-76
2020/12/27 03:38:05;;;;;;;2.63;1.77;;;-0.70;99.90;;;;;;4970420;28;20399;-75
2020/12/27 03:40:31;;;;;;;2.70;1.90;;;-0.70;99.90;;;;;;4957015;28;20879;-75
2020/12/27 03:42:56;;;;;;;2.80;1.40;;;-0.80;99.90;;;;;;4967751;28;20886;-74
2020/12/27 03:45:22;;;;;;;1.95;1.77;;;-0.60;99.90;;;;;;4952641;28;20394;-74
2020/12/27 03:47:48;;;;;;;1.90;1.67;;;-1.10;99.90;;;;;;4961591;28;20388;-75
2020/12/27 03:50:13;;;;;;;1.88;1.50;;;-0.70;99.90;;;;;;4959235;28;20763;-74
2020/12/27 03:52:39;;;;;;;1.50;1.33;;;-0.70;99.90;;;;;;4968598;28;20428;-76
2020/12/27 03:55:05;;;;;;;3.17;1.67;;;-1.10;99.90;;;;;;4956228;28;20927;-74
2020/12/27 03:57:30;;;;;;;2.00;1.60;;;-1.10;99.90;;;;;;4964679;28;20382;-75
2020/12/27 03:59:56;;;;;;;3.60;1.83;;;-1.00;99.90;;;;;;4977495;28;20982;-73
2020/12/27 04:02:22;;;;;;;1.50;1.30;;;0.60;99.90;;;;;;4972669;28;20875;-73
2020/12/27 04:04:47;;;;;;;3.07;1.90;;;1.30;99.90;;;;;;4967682;28;20439;-73
2020/12/27 04:07:13;;;;;;;2.35;1.73;;;-1.20;99.90;;;;;;4957642;28;20753;-74
2020/12/27 04:09:38;;;;;;;2.40;1.83;;;-1.30;99.90;;;;;;4963340;28;20438;-75
2020/12/27 04:12:04;;;;;;;2.30;1.50;;;-1.30;99.90;;;;;;4963852;28;20410;-73
2020/12/27 04:14:30;;;;;;;2.13;1.77;;;-1.30;99.90;;;;;;4956674;28;20416;-73
2020/12/27 04:16:55;;;;;;;2.53;1.50;;;-1.00;99.90;;;;;;4967686;28;20516;-73
2020/12/27 04:19:21;;;;;;;2.28;1.90;;;-1.10;99.90;;;;;;4958450;28;20392;-73
2020/12/27 04:21:47;;;;;;;1.77;1.55;;;-0.80;99.90;;;;;;4961465;28;20489;-74
2020/12/27 04:24:13;;;;;;;3.07;1.80;;;-1.00;99.90;;;;;;4964803;28;20917;-75
2020/12/27 04:26:39;;;;;;;2.92;1.70;;;-1.20;99.90;;;;;;4955524;28;20409;-76
2020/12/27 04:29:05;;;;;;;1.80;1.60;;;-1.10;99.90;;;;;;4967061;28;20398;-75
2020/12/27 04:31:30;;;;;;;3.50;1.70;;;-1.20;99.90;;;;;;4958375;28;20400;-75
2020/12/27 04:33:57;;;;;;;3.03;1.83;;;-0.90;99.90;;;;;;4960186;28;20407;-75
2020/12/27 04:36:23;;;;;;;2.78;1.70;;;-0.90;99.90;;;;;;4966441;28;20447;-75
2020/12/27 04:38:49;;;;;;;2.30;1.70;;;-0.60;99.90;;;;;;4954737;28;20449;-75
2020/12/27 04:41:17;;;;;;;1.50;1.20;;;-0.10;99.90;;;;;;4966528;28;20400;-74
2020/12/27 04:43:44;;;;;;;1.10;1.00;;;-0.10;99.90;;;;;;4960122;28;20400;-74
2020/12/27 04:46:11;;;;;;;1.20;1.10;;;-0.10;99.90;;;;;;4971047;28;20392;-74
2020/12/27 04:48:42;;;;;;;0.93;0.80;;;0.20;99.30;;;;;;4955752;28;20472;-74
2020/12/27 04:51:09;;;;;;;1.55;0.80;;;0.60;99.90;;;;;;4966966;28;20390;-74
2020/12/27 04:53:36;;;;;;;1.08;0.90;;;2.50;97.70;;;;;;4960003;28;20388;-74
2020/12/27 04:56:03;;;;;;;1.15;0.90;;;3.60;97.40;;;;;;4959238;28;20720;-74
2020/12/27 04:58:29;;;;;;;1.30;0.70;;;2.70;96.80;;;;;;4969646;28;20437;-75
2020/12/27 05:00:59;;;;;;;1.35;0.90;;;0.90;96.20;;;;;;4973216;28;20405;-75
2020/12/27 05:03:25;;;;;;;2.20;1.00;;;1.10;96.50;;;;;;4968408;28;20421;-74
2020/12/27 05:05:52;;;;;;;2.00;1.30;;;0.60;96.40;;;;;;4965156;28;20471;-74
2020/12/27 05:08:18;;;;;;;1.70;1.30;;;0.10;98.80;;;;;;4961802;28;20719;-74
2020/12/27 05:10:45;;;;;;;1.80;1.70;;;0.10;99.90;;;;;;4970740;28;20384;-75
2020/12/27 05:13:11;;;;;;;1.63;1.52;;;0.10;99.90;;;;;;4959246;28;20381;-75
2020/12/27 05:15:38;;;;;;;1.90;1.70;;;0.60;99.90;;;;;;4971958;28;20474;-74
2020/12/27 05:18:07;;;;;;;2.50;1.65;;;-0.10;99.90;;;;;;4973755;28;20471;-76
2020/12/27 05:20:34;;;;;;;3.45;2.08;;;-0.60;99.90;;;;;;4972227;28;20419;-75
2020/12/27 05:23:01;;;;;;;1.70;1.60;;;-0.60;99.90;;;;;;4969229;28;21039;-75
2020/12/27 05:25:31;;;;;;;1.70;1.50;;;-0.70;99.90;;;;;;4971643;28;20396;-74
2020/12/27 05:28:08;;;;;;;2.70;1.80;;;-1.00;99.90;;;;;;4970942;28;20404;-74
2020/12/27 05:30:35;;;;;;;1.63;1.13;;;-0.60;99.90;;;;;;4969522;28;20876;-74
2020/12/27 05:33:09;;;;;;;4.18;2.10;;;-0.30;99.90;;;;;;4971309;28;20407;-74
2020/12/27 05:35:34;;;;;;;2.65;1.83;;;-0.40;99.90;;;;;;4971734;28;20452;-74
2020/12/27 05:38:01;;;;;;;3.37;1.77;;;-0.80;99.90;;;;;;4970592;28;20615;-75
2020/12/27 05:40:32;;;;;;;2.28;1.70;;;-1.10;99.90;;;;;;4971718;28;20380;-75
2020/12/27 05:42:58;;;;;;;2.30;1.70;;;-0.80;99.90;;;;;;4968608;28;20756;-74
2020/12/27 05:45:24;;;;;;;2.17;1.65;;;0.00;99.90;;;;;;4972129;28;20475;-74
2020/12/27 05:47:49;;;;;;;3.97;1.48;;;-1.30;99.90;;;;;;4972312;28;20451;-74
2020/12/27 05:50:19;;;;;;;2.67;2.17;;;-1.00;99.90;;;;;;4972621;28;20479;-74
2020/12/27 05:52:49;;;;;;;2.50;1.52;;;1.20;99.90;;;;;;4972045;28;20491;-74
2020/12/27 05:55:18;;;;;;;1.77;1.40;;;1.00;99.90;;;;;;4969527;28;20422;-74
2020/12/27 05:57:55;;;;;;;1.77;1.60;;;-0.90;99.90;;;;;;4970612;28;20396;-75
2020/12/27 06:00:23;;;;;;;3.88;1.60;;;0.80;99.90;;;;;;4967296;28;20388;-74
2020/12/27 06:02:59;;;;;;;3.17;1.55;;;-1.10;99.90;;;;;;4969299;28;20420;-73
2020/12/27 06:05:47;;;;;;;2.13;1.60;;;-1.20;99.90;;;;;;4971273;28;20744;-74
2020/12/27 06:08:28;;;;;;;2.67;1.40;;;-0.50;99.90;;;;;;4970210;28;20389;-74
2020/12/27 06:10:56;;;;;;;1.73;1.52;;;-0.70;99.90;;;;;;4970526;28;20404;-74
2020/12/27 06:13:55;;;;;;;1.60;1.20;;;-1.00;99.90;;;;;;4970030;28;20394;-73
2020/12/27 06:16:48;;;;;;;6.20;1.58;;;-0.60;99.90;;;;;;4981681;28;20495;-74
2020/12/27 06:19:25;;;;;;;1.55;1.30;;;-0.90;99.90;;;;;;4968279;28;20404;-73
2020/12/27 06:22:04;;;;;;;1.52;1.42;;;-0.90;99.90;;;;;;4969678;28;20396;-73
2020/12/27 06:24:31;;;;;;;2.00;1.60;;;-1.10;99.90;;;;;;4985359;28;20399;-74
2020/12/27 06:26:57;;;;;;;1.33;1.20;;;0.30;99.90;;;;;;4969824;28;20404;-73
2020/12/27 06:29:29;;;;;;;1.77;1.40;;;-1.20;99.90;;;;;;4970475;28;20867;-75
2020/12/27 06:31:56;;;;;;;1.60;1.50;;;-0.90;99.90;;;;;;4969328;28;20398;-73
2020/12/27 06:34:23;;;;;;;1.65;1.55;;;-0.70;99.90;;;;;;4967761;28;20384;-74
2020/12/27 06:36:51;;;;;;;1.83;1.40;;;0.80;99.90;;;;;;4970337;28;20826;-75
2020/12/27 06:39:27;;;;;;;1.92;1.40;;;0.80;99.90;;;;;;4969193;28;20387;-74
2020/12/27 06:42:10;;;;;;;2.80;1.70;;;-0.90;99.90;;;;;;4966293;28;20471;-74
2020/12/27 06:44:54;;;;;;;2.13;1.75;;;-1.00;99.90;;;;;;4983014;28;20770;-75
2020/12/27 06:47:46;;;;;;;2.90;1.65;;;0.30;99.90;;;;;;4970457;28;20916;-76
2020/12/27 06:50:20;;;;;;;2.22;1.60;;;-0.60;99.90;;;;;;4967073;28;20512;-76
2020/12/27 06:52:48;;;;;;;2.42;1.35;;;-1.00;99.90;;;;;;4967505;28;20410;-76
2020/12/27 06:55:37;;;;;;;1.75;1.40;;;1.00;99.90;;;;;;4966328;28;20438;-74
2020/12/27 06:58:22;;;;;;;2.17;1.40;;;-0.80;99.90;;;;;;4967645;28;20914;-73
2020/12/27 07:01:07;;;;;;;1.90;1.65;;;-1.10;99.90;;;;;;4969474;28;20389;-74
2020/12/27 07:03:33;;;;;;;1.90;1.70;;;-0.30;99.90;;;;;;4969497;28;20767;-75
2020/12/27 07:06:19;;;;;;;3.33;1.90;;;-1.10;99.90;;;;;;4970299;28;20389;-75
2020/12/27 07:08:45;;;;;;;1.95;1.40;;;-1.00;99.90;;;;;;4970183;28;20427;-77
2020/12/27 07:11:16;;;;;;;2.25;1.70;;;-1.30;99.90;;;;;;4967567;28;20439;-75
2020/12/27 07:13:45;;;;;;;3.40;1.50;;;-1.00;99.90;;;;;;4966040;28;20792;-75
2020/12/27 07:16:14;;;;;;;2.58;1.92;;;-0.90;99.90;;;;;;4967528;28;20931;-75
2020/12/27 07:18:40;;;;;;;1.90;1.50;;;-1.10;99.90;;;;;;4970571;28;20408;-75
2020/12/27 07:21:12;;;;;;;1.40;1.23;;;-0.90;99.90;;;;;;4966373;28;20469;-75
2020/12/27 07:23:47;;;;;;;2.40;1.35;;;-1.00;99.90;;;;;;4967300;28;20465;-75
2020/12/27 07:26:14;;;;;;;3.10;1.70;;;-1.60;99.90;;;;;;4968993;28;20475;-75
2020/12/27 07:28:39;;;;;;;1.92;1.60;;;0.60;99.90;;;;;;4970572;28;20785;-75
2020/12/27 07:31:06;;;;;;;2.00;1.50;;;-0.30;99.90;;;;;;4968117;28;20386;-74
2020/12/27 07:33:38;;;;;;;2.28;1.83;;;-1.10;99.90;;;;;;4969497;28;20936;-74
2020/12/27 07:36:05;;;;;;;2.03;1.45;;;-1.10;99.90;;;;;;4968437;28;20495;-75
2020/12/27 07:38:59;;;;;;;2.30;2.00;;;-1.00;99.90;;;;;;4968058;28;20384;-75
2020/12/27 07:41:29;;;;;;;1.50;1.23;;;-0.80;99.90;;;;;;4969874;28;20494;-75
2020/12/27 07:43:56;;;;;;;1.67;1.40;;;-0.80;99.90;;;;;;4969495;28;20408;-75
2020/12/27 07:46:22;;;;;;;1.60;1.42;;;-0.90;99.90;;;;;;4968726;28;20419;-74
2020/12/27 07:48:49;;;;;;;2.33;1.70;;;-0.90;99.90;;;;;;4966850;28;20864;-76
2020/12/27 07:51:21;;;;;;;2.38;1.50;;;1.30;99.90;;;;;;4969040;28;20637;-74
2020/12/27 07:53:49;;;;;;;3.80;1.75;;;0.70;99.90;;;;;;4969446;28;20809;-76
2020/12/27 07:56:16;;;;;;;4.22;1.52;;;-0.60;99.90;;;;;;4970005;28;20515;-75
2020/12/27 07:58:52;;;;;;;1.60;1.17;;;0.60;99.90;;;;;;4968076;28;20396;-74
2020/12/27 08:01:23;;;;;;;1.90;1.60;;;-0.60;99.90;;;;;;4968174;28;20901;-74
2020/12/27 08:03:54;;;;;;;2.63;1.52;;;-0.40;99.90;;;;;;4967058;28;20400;-76
2020/12/27 08:06:20;;;;;;;1.80;1.58;;;-0.40;99.90;;;;;;4968494;28;20403;-74
2020/12/27 08:08:47;;;;;;;1.90;1.33;;;-0.60;99.90;;;;;;4967508;28;20401;-76
2020/12/27 08:11:23;;;;;;;2.70;1.43;;;0.30;99.90;;;;;;4968343;28;20392;-74
2020/12/27 08:13:51;;;;;;;2.63;1.65;;;0.00;99.90;;;;;;4967431;28;20909;-76
2020/12/27 08:16:17;;;;;;;2.10;1.50;;;-1.10;99.90;;;;;;4969068;28;20443;-74
2020/12/27 08:18:42;;;;;;;2.80;1.40;;;1.00;99.90;;;;;;4969084;28;20392;-74
2020/12/27 08:21:08;;;;;;;1.90;1.60;;;-0.20;99.90;;;;;;4966814;28;20464;-74
2020/12/27 08:23:34;;;;;;;1.53;1.40;;;-0.10;99.90;;;;;;4969570;28;20397;-74
2020/12/27 08:26:00;;;;;;;2.70;1.42;;;-0.40;99.90;;;;;;4968669;28;20793;-73
2020/12/27 08:28:26;;;;;;;1.50;1.30;;;-0.40;99.90;;;;;;4968793;28;20403;-74
2020/12/27 08:30:52;;;;;;;2.23;1.80;;;0.10;99.90;;;;;;4965156;28;20385;-74
2020/12/27 08:33:19;;;;;;;2.30;1.70;;;-0.30;99.90;;;;;;4973244;28;20392;-74
2020/12/27 08:35:47;;;;;;;1.88;1.45;;;0.00;99.90;;;;;;4972826;28;20825;-77
2020/12/27 08:38:35;;;;;;;1.95;1.50;;;0.40;99.90;;;;;;4974544;28;20420;-76
2020/12/27 08:41:23;;;;;;;2.50;1.52;;;0.10;99.90;;;;;;4973660;28;20860;-77
2020/12/27 08:43:48;;;;;;;2.78;1.73;;;0.30;99.90;;;;;;4970154;28;20757;-76
2020/12/27 08:46:18;;;;;;;2.42;1.70;;;0.40;99.90;;;;;;4974237;28;20423;-74
2020/12/27 08:48:53;;;;;;;3.50;1.75;;;0.30;99.90;;;;;;4971748;28;20476;-72
2020/12/27 08:51:21;;;;;;;2.72;1.73;;;1.30;99.90;;;;;;4973565;28;20416;-73
2020/12/27 08:53:47;;;;;;;2.38;1.50;;;0.20;99.90;;;;;;4969701;28;20395;-73
2020/12/27 08:56:14;;;;;;;2.08;1.70;;;0.70;99.90;;;;;;4971042;28;20928;-73
2020/12/27 08:58:52;;;;;;;1.80;1.50;;;2.30;99.90;;;;;;4988172;28;20872;-75
2020/12/27 09:01:23;;;;;;;2.53;1.97;;;0.00;99.90;;;;;;4971387;28;20867;-72
2020/12/27 09:03:49;;;;;;;1.83;1.73;;;1.70;99.90;;;;;;4967718;28;20392;-74
2020/12/27 09:06:15;;;;;;;1.70;1.60;;;1.30;99.90;;;;;;4973437;28;20388;-74
2020/12/27 09:08:41;;;;;;;3.00;1.50;;;2.20;99.90;;;;;;4971820;28;20439;-74
2020/12/27 09:11:06;;;;;;;5.60;1.52;;;1.00;99.90;;;;;;4969269;28;20402;-72
2020/12/27 09:13:40;;;;;;;1.90;1.40;;;2.80;99.90;;;;;;4972054;28;20482;-72
2020/12/27 09:16:06;;;;;;;3.00;1.60;;;0.70;99.90;;;;;;4965952;28;20419;-73
2020/12/27 09:18:34;;;;;;;2.00;1.80;;;3.10;99.90;;;;;;4971932;28;20403;-73
2020/12/27 09:21:07;;;;;;;1.53;1.40;;;0.70;99.90;;;;;;4968081;28;20497;-73
2020/12/27 09:23:33;;;;;;;1.65;1.55;;;1.10;99.90;;;;;;4971850;28;20486;-73
2020/12/27 09:26:10;;;;;;;3.28;1.50;;;1.20;99.90;;;;;;4971155;28;20475;-74
2020/12/27 09:28:40;;;;;;;3.05;1.50;;;2.70;99.90;;;;;;4969542;28;20404;-73
2020/12/27 09:31:10;;;;;;;2.00;1.58;;;1.10;99.90;;;;;;4969590;28;20419;-73
2020/12/27 09:33:43;;;;;;;2.83;2.03;;;1.10;99.90;;;;;;4972858;28;20524;-73
2020/12/27 09:36:10;;;;;;;2.05;1.60;;;2.50;99.90;;;;;;4970251;28;20420;-73
2020/12/27 09:38:38;;;;;;;3.08;1.80;;;1.20;99.90;;;;;;4972865;28;20383;-73
2020/12/27 09:41:14;;;;;;;2.40;1.70;;;1.00;99.90;;;;;;4971239;28;20392;-74
2020/12/27 09:43:50;;;;;;;2.13;1.90;;;0.90;99.90;;;;;;4971566;28;20424;-74
2020/12/27 09:46:44;;;;;;;1.77;1.60;;;1.10;99.90;;;;;;4969662;28;20431;-74
2020/12/27 09:49:16;;;;;;;2.40;1.80;;;1.00;99.90;;;;;;4971485;28;20427;-74
2020/12/27 09:51:42;;;;;;;2.47;1.90;;;3.20;99.90;;;;;;4972296;28;20404;-74
2020/12/27 09:54:08;;;;;;;1.60;1.50;;;;;;;;;;4970058;28;20408;-75
2020/12/27 09:56:44;;;;;;;2.85;2.25;;;1.40;99.90;;;;;;4972728;28;20503;-75
2020/12/27 09:59:10;;;;;;;2.28;1.77;;;1.50;99.90;;;;;;4971679;28;20388;-75
2020/12/27 10:01:37;;;;;;;1.70;1.60;;;1.30;99.90;;;;;;4972899;28;20483;-74
2020/12/27 10:04:03;;;;;;;2.70;2.22;;;2.90;99.90;;;;;;4972200;28;20748;-75
2020/12/27 10:06:30;;;;;;;3.63;2.25;;;1.50;99.90;;;;;;4972588;28;20765;-75
2020/12/27 10:08:57;;;;;;;2.67;2.15;;;1.60;99.90;;;;;;4971955;28;20428;-76
2020/12/27 10:11:22;;;;;;;3.00;2.10;;;2.40;99.90;;;;;;4972894;28;20781;-75
2020/12/27 10:13:48;;;;;;;3.70;1.52;;;4.10;99.90;;;;;;4972613;28;20447;-76
2020/12/27 10:16:14;;;;;;;2.70;1.60;;;1.70;99.90;;;;;;4971936;28;20643;-74
2020/12/27 10:18:39;;;;;;;2.10;1.60;;;4.70;99.90;;;;;;4971235;28;20392;-75
2020/12/27 10:21:08;;;;;;;2.23;1.53;;;3.20;99.90;;;;;;4967583;28;20460;-74
2020/12/27 10:23:34;;;;;;;2.22;1.70;;;2.00;99.90;;;;;;4963943;28;20396;-74
2020/12/27 10:26:00;;;;;;;2.97;1.52;;;1.90;99.90;;;;;;4969536;28;20400;-75
2020/12/27 10:28:25;;;;;;;2.08;1.58;;;2.90;99.90;;;;;;4967947;28;20427;-74
2020/12/27 10:30:51;;;;;;;1.87;1.67;;;2.20;99.90;;;;;;4970844;28;20877;-74
2020/12/27 10:33:17;;;;;;;1.42;1.00;;;2.30;99.90;;;;;;4968590;28;20497;-73
2020/12/27 10:35:42;;;;;;;1.10;0.88;;;2.80;99.90;;;;;;4962858;28;20812;-73
2020/12/27 10:38:08;;;;;;;1.50;0.80;;;5.10;99.90;;;;;;4960099;28;20398;-74
2020/12/27 10:40:37;;;;;;;0.50;0.50;;;4.70;99.90;;;;;;4975383;28;20402;-75
2020/12/27 10:43:03;;;;;;;0.60;0.40;;;4.20;96.30;;;;;;4966350;28;21333;-74
2020/12/27 10:45:29;;;;;;;0.43;0.30;;;6.30;96.10;;;;;;4960968;28;20400;-75
2020/12/27 10:47:54;;;;;;;0.40;0.30;;;4.80;96.20;;;;;;4957319;28;20385;-74
2020/12/27 10:50:20;;;;;;;0.40;0.30;;;6.10;96.00;;;;;;4953449;28;20744;-74
2020/12/27 10:52:45;;;;;;;0.70;0.50;;;5.80;93.10;;;;;;4963036;28;20402;-75
2020/12/27 10:55:11;;;;;;;0.70;0.40;;;6.00;93.20;;;;;;4960778;28;20464;-74
2020/12/27 10:57:37;;;;;;;0.60;0.43;;;5.30;95.90;;;;;;4961882;28;20762;-72
2020/12/27 11:00:04;;;;;;;0.77;0.40;;;5.90;92.00;;;;;;4964238;28;20387;-72
2020/12/27 11:02:30;;;;;;;0.60;0.30;;;5.60;91.40;;;;;;4962243;28;20443;-71
2020/12/27 11:04:55;;;;;;;1.30;0.33;;;6.00;91.00;;;;;;4961571;28;20390;-72
2020/12/27 11:07:21;;;;;;;0.40;0.20;;;6.50;90.50;;;;;;4962379;28;20900;-73
2020/12/27 11:09:47;;;;;;;1.30;0.30;;;5.80;94.30;;;;;;4961965;28;20861;-74
2020/12/27 11:12:12;;;;;;;0.40;0.30;;;5.70;89.70;;;;;;4968256;28;20741;-73
2020/12/27 11:14:38;;;;;;;0.40;0.30;;;6.00;88.60;;;;;;4955490;28;20444;-73
2020/12/27 11:17:03;;;;;;;0.40;0.30;;;7.40;94.00;;;;;;4952645;28;20772;-73
2020/12/27 11:19:30;;;;;;;0.70;0.30;;;6.10;87.80;;;;;;4969526;28;20417;-73
2020/12/27 11:21:55;;;;;;;0.40;0.20;;;6.10;85.40;;;;;;4956462;28;20405;-74
2020/12/27 11:24:21;;;;;;;0.60;0.40;;;5.90;84.60;;;;;;4962198;28;20456;-74
2020/12/27 11:26:47;;;;;;;0.60;0.40;;;6.60;91.90;;;;;;4962581;28;20905;-74
2020/12/27 11:29:13;;;;;;;0.40;0.30;;;6.40;83.10;;;;;;4963485;28;20396;-73
2020/12/27 11:31:38;;;;;;;0.40;0.30;;;6.40;82.20;;;;;;4961708;28;20393;-75
2020/12/27 11:34:04;;;;;;;0.40;0.30;;;7.60;90.00;;;;;;4961269;28;20411;-75
2020/12/27 11:36:30;;;;;;;0.40;0.30;;;6.40;83.30;;;;;;4962835;28;20470;-76
2020/12/27 11:38:55;;;;;;;0.50;0.30;;;7.90;81.00;;;;;;4958994;28;20403;-74
2020/12/27 11:41:21;;;;;;;0.50;0.30;;;6.50;80.70;;;;;;4954743;28;20382;-75
2020/12/27 11:43:46;;;;;;;0.70;0.30;;;6.50;85.00;;;;;;4955126;28;20421;-75
2020/12/27 11:46:12;;;;;;;0.40;0.30;;;6.60;77.20;;;;;;4954881;28;20932;-76
2020/12/27 11:48:38;;;;;;;0.40;0.30;;;6.80;77.30;;;;;;4951332;28;20404;-76
2020/12/27 11:51:05;;;;;;;0.45;0.30;;;8.60;86.80;;;;;;4956213;28;20400;-77
2020/12/27 11:53:31;;;;;;;0.40;0.20;;;6.70;83.90;;;;;;4954633;28;20392;-75
2020/12/27 11:55:56;;;;;;;0.50;0.30;;;6.60;87.20;;;;;;4950497;28;20448;-75
2020/12/27 11:58:22;;;;;;;0.50;0.40;;;7.80;80.30;;;;;;4956384;28;20401;-74
2020/12/27 12:00:48;;;;;;;0.65;0.40;;;6.60;80.30;;;;;;4954668;28;21699;-75
2020/12/27 12:03:14;;;;;;;0.50;0.30;;;6.60;87.10;;;;;;4949339;28;20404;-75
2020/12/27 12:05:39;;;;;;;0.50;0.30;;;8.70;83.50;;;;;;4953728;28;20452;-75
2020/12/27 12:08:05;;;;;;;0.90;0.30;;;6.80;82.40;;;;;;4953115;28;20390;-76
2020/12/27 12:10:31;;;;;;;0.40;0.28;;;8.00;91.30;;;;;;4947441;28;20397;-75
2020/12/27 12:12:56;;;;;;;0.50;0.40;;;6.70;82.80;;;;;;4955056;28;20491;-75
2020/12/27 12:15:22;;;;;;;0.43;0.20;;;6.60;82.20;;;;;;4955571;28;20600;-73
2020/12/27 12:17:47;;;;;;;0.60;0.30;;;7.00;90.30;;;;;;4954586;28;20406;-74
2020/12/27 12:22:57;;;;;;;1.17;0.80;;;7.10;83.90;;;;;;4955405;28;20683;-76
2020/12/27 12:25:23;;;;;;;1.10;0.70;;;6.90;83.00;;;;;;4957783;28;21851;-74
2020/12/27 12:27:49;;;;;;;0.80;0.55;;;6.90;90.80;;;;;;4953477;28;20397;-76
2020/12/27 12:30:15;;;;;;;0.40;0.40;;;6.80;83.20;;;;;;4950323;28;20392;-74
2020/12/27 12:32:41;;;;;;;0.60;0.60;;;6.70;84.10;;;;;;4966074;28;20943;-74
2020/12/27 12:35:06;;;;;;;0.70;0.43;;;6.70;84.40;;;;;;4949325;28;20402;-75
2020/12/27 12:37:32;;;;;;;1.00;0.40;;;6.50;91.80;;;;;;4954457;28;20447;-76
2020/12/27 12:39:58;;;;;;;0.80;0.50;;;6.80;86.00;;;;;;4947678;28;20813;-76
2020/12/27 12:42:23;;;;;;;0.75;0.50;;;6.40;84.60;;;;;;4948544;28;20401;-76
2020/12/27 12:44:49;;;;;;;0.60;0.50;;;7.20;92.40;;;;;;4955342;28;20398;-76
2020/12/27 12:47:15;;;;;;;1.60;0.80;;;6.60;87.20;;;;;;4950680;28;20896;-75
2020/12/27 12:49:40;;;;;;;0.90;0.70;;;6.50;87.00;;;;;;4953108;28;20398;-75
2020/12/27 12:52:06;;;;;;;0.70;0.50;;;6.30;93.00;;;;;;4951809;28;20420;-77
2020/12/27 12:54:32;;;;;;;0.73;0.63;;;6.30;86.50;;;;;;4953011;28;20942;-74
2020/12/27 12:56:57;;;;;;;1.38;0.50;;;6.20;87.30;;;;;;4952368;28;20433;-74
2020/12/27 12:59:23;;;;;;;0.63;0.57;;;7.70;93.60;;;;;;4954287;28;20488;-75